sensor_id;sensor_type;location;lat;lon;timestamp;temperature;humidity
19003;DHT22;9634;51.040;13.794;2022-11-15T00:02:53;7.80;99.90
19003;DHT22;9634;51.040;13.794;2022-11-15T00:08:15;7.70;99.90
19003;DHT22;9634;51.040;13.794;2022-11-15T00:13:37;7.60;99.90
19003;DHT22;9634;51.040;13.794;2022-11-15T00:18:58;7.60;99.90
19003;DHT22;9634;51.040;13.794;2022-11-15T00:24:20;7.50;99.90
19003;DHT22;9634;51.040;13.794;2022-11-15T00:29:42;7.60;99.90
19003;DHT22;9634;51.040;13.794;2022-11-15T00:35:04;7.50;99.90
19003;DHT22;9634;51.040;13.794;2022-11-15T00:40:25;7.50;99.90
19003;DHT22;9634;51.040;13.794;2022-11-15T00:45:48;7.60;99.90
19003;DHT22;9634;51.040;13.794;2022-11-15T00:51:09;7.50;99.90
19003;DHT22;9634;51.040;13.794;2022-11-15T00:56:30;7.50;99.90
19003;DHT22;9634;51.040;13.794;2022-11-15T01:01:53;7.50;99.90
19003;DHT22;9634;51.040;13.794;2022-11-15T01:07:14;7.40;99.90
19003;DHT22;9634;51.040;13.794;2022-11-15T01:12:35;7.40;99.90
19003;DHT22;9634;51.040;13.794;2022-11-15T01:17:58;7.50;99.90
19003;DHT22;9634;51.040;13.794;2022-11-15T01:23:19;7.60;99.90
19003;DHT22;9634;51.040;13.794;2022-11-15T01:28:41;7.60;99.90
19003;DHT22;9634;51.040;13.794;2022-11-15T01:34:04;7.60;99.90
19003;DHT22;9634;51.040;13.794;2022-11-15T01:39:25;7.70;99.90
19003;DHT22;9634;51.040;13.794;2022-11-15T01:44:48;7.70;99.90
19003;DHT22;9634;51.040;13.794;2022-11-15T01:50:13;7.70;99.90
19003;DHT22;9634;51.040;13.794;2022-11-15T01:55:35;7.70;99.90
19003;DHT22;9634;51.040;13.794;2022-11-15T02:00:57;7.70;99.90
19003;DHT22;9634;51.040;13.794;2022-11-15T02:06:20;7.70;99.90
19003;DHT22;9634;51.040;13.794;2022-11-15T02:11:45;7.70;99.90
19003;DHT22;9634;51.040;13.794;2022-11-15T02:17:18;7.70;99.90
19003;DHT22;9634;51.040;13.794;2022-11-15T02:22:59;7.60;99.90
19003;DHT22;9634;51.040;13.794;2022-11-15T02:28:48;7.70;99.90
19003;DHT22;9634;51.040;13.794;2022-11-15T02:34:21;7.60;99.90
19003;DHT22;9634;51.040;13.794;2022-11-15T02:39:49;7.50;99.90
19003;DHT22;9634;51.040;13.794;2022-11-15T02:45:19;7.60;99.90
19003;DHT22;9634;51.040;13.794;2022-11-15T02:50:44;7.60;99.90
19003;DHT22;9634;51.040;13.794;2022-11-15T02:56:08;7.50;99.90
19003;DHT22;9634;51.040;13.794;2022-11-15T03:01:38;7.50;99.90
19003;DHT22;9634;51.040;13.794;2022-11-15T03:07:15;7.50;99.90
19003;DHT22;9634;51.040;13.794;2022-11-15T03:12:42;7.50;99.90
19003;DHT22;9634;51.040;13.794;2022-11-15T03:18:10;7.50;99.90
19003;DHT22;9634;51.040;13.794;2022-11-15T03:23:36;7.50;99.90
19003;DHT22;9634;51.040;13.794;2022-11-15T03:29:03;7.50;99.90
19003;DHT22;9634;51.040;13.794;2022-11-15T03:34:28;7.50;99.90
19003;DHT22;9634;51.040;13.794;2022-11-15T03:39:51;7.50;99.90
19003;DHT22;9634;51.040;13.794;2022-11-15T03:45:15;7.50;99.90
19003;DHT22;9634;51.040;13.794;2022-11-15T03:50:38;7.50;99.90
19003;DHT22;9634;51.040;13.794;2022-11-15T03:56:00;7.50;99.90
19003;DHT22;9634;51.040;13.794;2022-11-15T04:01:21;7.50;99.90
19003;DHT22;9634;51.040;13.794;2022-11-15T04:06:43;7.40;99.90
19003;DHT22;9634;51.040;13.794;2022-11-15T04:12:05;7.40;99.90
19003;DHT22;9634;51.040;13.794;2022-11-15T04:17:30;7.40;99.90
19003;DHT22;9634;51.040;13.794;2022-11-15T04:22:52;7.30;99.90
19003;DHT22;9634;51.040;13.794;2022-11-15T04:28:32;7.40;99.90
19003;DHT22;9634;51.040;13.794;2022-11-15T04:33:53;7.40;99.90
19003;DHT22;9634;51.040;13.794;2022-11-15T04:39:15;7.50;99.90
19003;DHT22;9634;51.040;13.794;2022-11-15T04:44:37;7.50;99.90
19003;DHT22;9634;51.040;13.794;2022-11-15T04:49:59;7.40;99.90
19003;DHT22;9634;51.040;13.794;2022-11-15T04:55:20;7.50;99.90
19003;DHT22;9634;51.040;13.794;2022-11-15T05:00:42;7.40;99.90
19003;DHT22;9634;51.040;13.794;2022-11-15T05:06:04;7.40;99.90
19003;DHT22;9634;51.040;13.794;2022-11-15T05:11:25;7.40;99.90
19003;DHT22;9634;51.040;13.794;2022-11-15T05:16:49;7.30;99.90
19003;DHT22;9634;51.040;13.794;2022-11-15T05:22:10;7.20;99.90
19003;DHT22;9634;51.040;13.794;2022-11-15T05:27:32;7.30;99.90
19003;DHT22;9634;51.040;13.794;2022-11-15T05:32:54;7.20;99.90
19003;DHT22;9634;51.040;13.794;2022-11-15T05:38:16;7.20;99.90
19003;DHT22;9634;51.040;13.794;2022-11-15T05:43:38;7.20;99.90
19003;DHT22;9634;51.040;13.794;2022-11-15T05:49:09;7.30;99.90
19003;DHT22;9634;51.040;13.794;2022-11-15T05:54:32;7.20;99.90
19003;DHT22;9634;51.040;13.794;2022-11-15T05:59:54;7.20;99.90
19003;DHT22;9634;51.040;13.794;2022-11-15T06:05:16;7.10;99.90
19003;DHT22;9634;51.040;13.794;2022-11-15T06:10:38;7.10;99.90
19003;DHT22;9634;51.040;13.794;2022-11-15T06:15:59;7.10;99.90
19003;DHT22;9634;51.040;13.794;2022-11-15T06:21:22;7.20;99.90
19003;DHT22;9634;51.040;13.794;2022-11-15T06:26:43;7.20;99.90
19003;DHT22;9634;51.040;13.794;2022-11-15T06:32:05;7.20;99.90
19003;DHT22;9634;51.040;13.794;2022-11-15T06:37:27;7.30;99.90
19003;DHT22;9634;51.040;13.794;2022-11-15T06:42:48;7.30;99.90
19003;DHT22;9634;51.040;13.794;2022-11-15T06:48:10;7.30;99.90
19003;DHT22;9634;51.040;13.794;2022-11-15T06:53:32;7.30;99.90
19003;DHT22;9634;51.040;13.794;2022-11-15T06:58:53;7.60;99.90
19003;DHT22;9634;51.040;13.794;2022-11-15T07:04:15;7.80;99.90
19003;DHT22;9634;51.040;13.794;2022-11-15T07:09:38;8.10;99.90
19003;DHT22;9634;51.040;13.794;2022-11-15T07:14:59;8.40;99.90
19003;DHT22;9634;51.040;13.794;2022-11-15T07:20:20;8.60;99.90
19003;DHT22;9634;51.040;13.794;2022-11-15T07:25:42;8.80;99.90
19003;DHT22;9634;51.040;13.794;2022-11-15T07:31:04;9.00;99.90
19003;DHT22;9634;51.040;13.794;2022-11-15T07:36:25;9.30;99.90
19003;DHT22;9634;51.040;13.794;2022-11-15T07:41:47;9.50;99.90
19003;DHT22;9634;51.040;13.794;2022-11-15T07:47:09;9.90;99.90
19003;DHT22;9634;51.040;13.794;2022-11-15T07:52:31;10.20;99.90
19003;DHT22;9634;51.040;13.794;2022-11-15T07:58:00;10.40;99.90
19003;DHT22;9634;51.040;13.794;2022-11-15T08:03:21;10.90;99.90
19003;DHT22;9634;51.040;13.794;2022-11-15T08:08:43;11.10;99.90
19003;DHT22;9634;51.040;13.794;2022-11-15T08:14:05;11.60;99.90
19003;DHT22;9634;51.040;13.794;2022-11-15T08:19:30;12.30;99.90
19003;DHT22;9634;51.040;13.794;2022-11-15T08:24:51;13.70;99.90
19003;DHT22;9634;51.040;13.794;2022-11-15T08:30:13;14.10;99.90
19003;DHT22;9634;51.040;13.794;2022-11-15T08:35:35;14.30;99.90
19003;DHT22;9634;51.040;13.794;2022-11-15T08:41:01;14.50;99.90
19003;DHT22;9634;51.040;13.794;2022-11-15T08:46:24;14.90;99.90
19003;DHT22;9634;51.040;13.794;2022-11-15T08:51:48;15.50;99.90
19003;DHT22;9634;51.040;13.794;2022-11-15T08:57:10;16.80;99.90
19003;DHT22;9634;51.040;13.794;2022-11-15T09:02:33;17.00;99.40
19003;DHT22;9634;51.040;13.794;2022-11-15T09:07:54;16.90;99.60
19003;DHT22;9634;51.040;13.794;2022-11-15T09:13:15;17.40;95.90
19003;DHT22;9634;51.040;13.794;2022-11-15T09:18:38;17.60;92.70
19003;DHT22;9634;51.040;13.794;2022-11-15T09:23:59;17.80;90.70
19003;DHT22;9634;51.040;13.794;2022-11-15T09:29:21;17.80;90.30
19003;DHT22;9634;51.040;13.794;2022-11-15T09:34:44;18.20;83.90
19003;DHT22;9634;51.040;13.794;2022-11-15T09:40:08;17.80;86.40
19003;DHT22;9634;51.040;13.794;2022-11-15T09:45:34;18.50;80.40
19003;DHT22;9634;51.040;13.794;2022-11-15T09:51:19;19.20;72.70
19003;DHT22;9634;51.040;13.794;2022-11-15T09:56:26;20.00;60.70
19003;DHT22;9634;51.040;13.794;2022-11-15T10:01:38;19.70;62.70
19003;DHT22;9634;51.040;13.794;2022-11-15T10:06:51;20.80;55.60
19003;DHT22;9634;51.040;13.794;2022-11-15T10:11:55;22.10;47.50
19003;DHT22;9634;51.040;13.794;2022-11-15T10:22:38;21.50;46.00
19003;DHT22;9634;51.040;13.794;2022-11-15T10:27:42;22.80;42.00
19003;DHT22;9634;51.040;13.794;2022-11-15T10:32:47;23.70;38.00
19003;DHT22;9634;51.040;13.794;2022-11-15T10:38:05;23.90;37.20
19003;DHT22;9634;51.040;13.794;2022-11-15T10:43:14;24.00;35.80
19003;DHT22;9634;51.040;13.794;2022-11-15T10:48:22;24.40;33.50
19003;DHT22;9634;51.040;13.794;2022-11-15T10:53:36;25.00;31.60
19003;DHT22;9634;51.040;13.794;2022-11-15T10:58:44;25.90;29.20
19003;DHT22;9634;51.040;13.794;2022-11-15T11:04:00;25.20;29.40
19003;DHT22;9634;51.040;13.794;2022-11-15T11:14:38;23.80;30.60
19003;DHT22;9634;51.040;13.794;2022-11-15T11:19:56;23.90;30.90
19003;DHT22;9634;51.040;13.794;2022-11-15T11:25:18;24.00;30.70
19003;DHT22;9634;51.040;13.794;2022-11-15T11:30:24;24.40;30.00
19003;DHT22;9634;51.040;13.794;2022-11-15T11:35:36;24.40;29.70
19003;DHT22;9634;51.040;13.794;2022-11-15T11:40:44;25.40;28.00
19003;DHT22;9634;51.040;13.794;2022-11-15T11:46:12;26.20;27.00
19003;DHT22;9634;51.040;13.794;2022-11-15T11:51:20;26.70;25.90
19003;DHT22;9634;51.040;13.794;2022-11-15T11:56:28;27.10;24.60
19003;DHT22;9634;51.040;13.794;2022-11-15T12:01:35;25.90;26.10
19003;DHT22;9634;51.040;13.794;2022-11-15T12:06:47;25.90;25.50
19003;DHT22;9634;51.040;13.794;2022-11-15T12:11:56;26.10;25.50
19003;DHT22;9634;51.040;13.794;2022-11-15T12:17:00;27.40;23.60
19003;DHT22;9634;51.040;13.794;2022-11-15T12:22:06;26.80;24.20
19003;DHT22;9634;51.040;13.794;2022-11-15T12:27:17;26.90;23.50
19003;DHT22;9634;51.040;13.794;2022-11-15T12:32:26;26.40;24.40
19003;DHT22;9634;51.040;13.794;2022-11-15T12:37:46;26.10;24.50
19003;DHT22;9634;51.040;13.794;2022-11-15T12:43:05;26.10;24.50
19003;DHT22;9634;51.040;13.794;2022-11-15T12:48:45;26.00;24.60
19003;DHT22;9634;51.040;13.794;2022-11-15T12:53:48;26.10;24.10
19003;DHT22;9634;51.040;13.794;2022-11-15T12:58:55;25.20;25.40
19003;DHT22;9634;51.040;13.794;2022-11-15T13:04:21;25.10;25.60
19003;DHT22;9634;51.040;13.794;2022-11-15T13:09:50;24.80;25.50
19003;DHT22;9634;51.040;13.794;2022-11-15T13:14:54;24.50;26.30
19003;DHT22;9634;51.040;13.794;2022-11-15T13:20:07;25.30;25.30
19003;DHT22;9634;51.040;13.794;2022-11-15T13:25:16;24.90;25.70
19003;DHT22;9634;51.040;13.794;2022-11-15T13:30:24;24.40;26.20
19003;DHT22;9634;51.040;13.794;2022-11-15T13:35:30;24.50;26.20
19003;DHT22;9634;51.040;13.794;2022-11-15T13:40:35;24.00;26.60
19003;DHT22;9634;51.040;13.794;2022-11-15T13:45:40;22.00;29.00
19003;DHT22;9634;51.040;13.794;2022-11-15T13:50:43;21.00;31.10
19003;DHT22;9634;51.040;13.794;2022-11-15T13:55:45;18.50;37.30
19003;DHT22;9634;51.040;13.794;2022-11-15T14:00:59;17.70;42.60
19003;DHT22;9634;51.040;13.794;2022-11-15T14:06:09;18.10;43.20
19003;DHT22;9634;51.040;13.794;2022-11-15T14:11:15;16.50;50.50
19003;DHT22;9634;51.040;13.794;2022-11-15T14:16:21;15.30;67.30
19003;DHT22;9634;51.040;13.794;2022-11-15T14:21:34;15.00;82.00
19003;DHT22;9634;51.040;13.794;2022-11-15T14:26:38;15.30;85.30
19003;DHT22;9634;51.040;13.794;2022-11-15T14:31:42;15.70;80.80
19003;DHT22;9634;51.040;13.794;2022-11-15T14:36:47;15.50;81.00
19003;DHT22;9634;51.040;13.794;2022-11-15T14:41:50;13.30;99.90
19003;DHT22;9634;51.040;13.794;2022-11-15T14:46:54;11.70;99.90
19003;DHT22;9634;51.040;13.794;2022-11-15T14:51:56;10.80;1.00
19003;DHT22;9634;51.040;13.794;2022-11-15T14:56:59;10.10;16.50
19003;DHT22;9634;51.040;13.794;2022-11-15T15:02:04;9.60;99.90
19003;DHT22;9634;51.040;13.794;2022-11-15T15:07:10;9.20;1.00
19003;DHT22;9634;51.040;13.794;2022-11-15T15:12:16;8.90;1.00
19003;DHT22;9634;51.040;13.794;2022-11-15T15:17:20;8.60;1.00
19003;DHT22;9634;51.040;13.794;2022-11-15T15:22:26;8.30;1.00
19003;DHT22;9634;51.040;13.794;2022-11-15T15:27:30;8.10;1.00
19003;DHT22;9634;51.040;13.794;2022-11-15T15:32:34;8.00;1.00
19003;DHT22;9634;51.040;13.794;2022-11-15T15:37:40;7.70;1.00
19003;DHT22;9634;51.040;13.794;2022-11-15T15:42:42;7.60;6.60
19003;DHT22;9634;51.040;13.794;2022-11-15T15:47:47;7.50;28.20
19003;DHT22;9634;51.040;13.794;2022-11-15T15:52:53;7.40;66.00
19003;DHT22;9634;51.040;13.794;2022-11-15T15:57:56;7.20;93.30
19003;DHT22;9634;51.040;13.794;2022-11-15T16:03:00;7.10;99.90
19003;DHT22;9634;51.040;13.794;2022-11-15T16:08:02;7.00;99.90
19003;DHT22;9634;51.040;13.794;2022-11-15T16:13:05;6.90;99.90
19003;DHT22;9634;51.040;13.794;2022-11-15T16:18:15;6.90;99.90
19003;DHT22;9634;51.040;13.794;2022-11-15T16:23:19;6.80;99.90
19003;DHT22;9634;51.040;13.794;2022-11-15T16:28:27;6.70;99.90
19003;DHT22;9634;51.040;13.794;2022-11-15T16:33:31;6.70;99.90
19003;DHT22;9634;51.040;13.794;2022-11-15T16:38:33;6.60;99.90
19003;DHT22;9634;51.040;13.794;2022-11-15T16:43:37;6.60;99.90
19003;DHT22;9634;51.040;13.794;2022-11-15T16:48:40;6.50;99.90
19003;DHT22;9634;51.040;13.794;2022-11-15T16:53:44;6.50;99.90
19003;DHT22;9634;51.040;13.794;2022-11-15T16:58:46;6.50;99.90
19003;DHT22;9634;51.040;13.794;2022-11-15T17:03:50;6.40;99.90
19003;DHT22;9634;51.040;13.794;2022-11-15T17:08:53;6.40;99.90
19003;DHT22;9634;51.040;13.794;2022-11-15T17:13:56;6.40;99.90
19003;DHT22;9634;51.040;13.794;2022-11-15T17:19:00;6.40;99.90
19003;DHT22;9634;51.040;13.794;2022-11-15T17:24:03;6.40;99.90
19003;DHT22;9634;51.040;13.794;2022-11-15T17:29:06;6.40;99.90
19003;DHT22;9634;51.040;13.794;2022-11-15T17:34:10;6.30;99.90
19003;DHT22;9634;51.040;13.794;2022-11-15T17:39:13;6.20;99.90
19003;DHT22;9634;51.040;13.794;2022-11-15T17:44:16;6.30;99.90
19003;DHT22;9634;51.040;13.794;2022-11-15T17:49:20;6.20;99.90
19003;DHT22;9634;51.040;13.794;2022-11-15T17:54:23;6.20;99.90
19003;DHT22;9634;51.040;13.794;2022-11-15T17:59:25;6.20;99.90
19003;DHT22;9634;51.040;13.794;2022-11-15T18:04:29;6.10;99.90
19003;DHT22;9634;51.040;13.794;2022-11-15T18:09:35;6.10;99.90
19003;DHT22;9634;51.040;13.794;2022-11-15T18:14:37;6.00;99.90
19003;DHT22;9634;51.040;13.794;2022-11-15T18:19:41;6.00;99.90
19003;DHT22;9634;51.040;13.794;2022-11-15T18:24:44;6.00;99.90
19003;DHT22;9634;51.040;13.794;2022-11-15T18:29:46;6.00;99.90
19003;DHT22;9634;51.040;13.794;2022-11-15T18:34:50;5.90;99.90
19003;DHT22;9634;51.040;13.794;2022-11-15T18:39:53;5.90;99.90
19003;DHT22;9634;51.040;13.794;2022-11-15T18:44:56;5.90;99.90
19003;DHT22;9634;51.040;13.794;2022-11-15T18:50:01;5.80;99.90
19003;DHT22;9634;51.040;13.794;2022-11-15T18:55:04;5.80;99.90
19003;DHT22;9634;51.040;13.794;2022-11-15T19:00:11;5.80;99.90
19003;DHT22;9634;51.040;13.794;2022-11-15T19:05:19;5.80;99.90
19003;DHT22;9634;51.040;13.794;2022-11-15T19:10:21;5.80;99.90
19003;DHT22;9634;51.040;13.794;2022-11-15T19:15:24;5.80;99.90
19003;DHT22;9634;51.040;13.794;2022-11-15T19:20:28;5.70;99.90
19003;DHT22;9634;51.040;13.794;2022-11-15T19:25:30;5.60;99.90
19003;DHT22;9634;51.040;13.794;2022-11-15T19:30:33;5.60;99.90
19003;DHT22;9634;51.040;13.794;2022-11-15T19:35:37;5.60;99.90
19003;DHT22;9634;51.040;13.794;2022-11-15T19:40:40;5.60;99.90
19003;DHT22;9634;51.040;13.794;2022-11-15T19:45:42;5.60;99.90
19003;DHT22;9634;51.040;13.794;2022-11-15T19:50:46;5.60;99.90
19003;DHT22;9634;51.040;13.794;2022-11-15T19:55:53;5.50;99.90
19003;DHT22;9634;51.040;13.794;2022-11-15T20:00:59;5.50;99.90
19003;DHT22;9634;51.040;13.794;2022-11-15T20:06:06;5.50;99.90
19003;DHT22;9634;51.040;13.794;2022-11-15T20:11:08;5.50;99.90
19003;DHT22;9634;51.040;13.794;2022-11-15T20:16:15;5.50;99.90
19003;DHT22;9634;51.040;13.794;2022-11-15T20:21:20;5.50;99.90
19003;DHT22;9634;51.040;13.794;2022-11-15T20:26:23;5.50;99.90
19003;DHT22;9634;51.040;13.794;2022-11-15T20:31:26;5.40;99.90
19003;DHT22;9634;51.040;13.794;2022-11-15T20:36:31;5.50;99.90
19003;DHT22;9634;51.040;13.794;2022-11-15T20:41:33;5.50;99.90
19003;DHT22;9634;51.040;13.794;2022-11-15T20:46:36;5.60;99.90
19003;DHT22;9634;51.040;13.794;2022-11-15T20:51:40;5.60;99.90
19003;DHT22;9634;51.040;13.794;2022-11-15T20:56:43;5.60;99.90
19003;DHT22;9634;51.040;13.794;2022-11-15T21:01:45;5.60;99.90
19003;DHT22;9634;51.040;13.794;2022-11-15T21:06:50;5.60;99.90
19003;DHT22;9634;51.040;13.794;2022-11-15T21:11:52;5.70;99.90
19003;DHT22;9634;51.040;13.794;2022-11-15T21:17:14;5.70;99.90
19003;DHT22;9634;51.040;13.794;2022-11-15T21:22:18;5.70;99.90
19003;DHT22;9634;51.040;13.794;2022-11-15T21:27:21;5.70;99.90
19003;DHT22;9634;51.040;13.794;2022-11-15T21:32:23;5.70;99.90
19003;DHT22;9634;51.040;13.794;2022-11-15T21:37:27;5.60;99.90
19003;DHT22;9634;51.040;13.794;2022-11-15T21:42:30;5.60;99.90
19003;DHT22;9634;51.040;13.794;2022-11-15T21:47:36;5.60;99.90
19003;DHT22;9634;51.040;13.794;2022-11-15T21:52:40;5.70;99.90
19003;DHT22;9634;51.040;13.794;2022-11-15T21:57:44;5.70;99.90
19003;DHT22;9634;51.040;13.794;2022-11-15T22:02:46;5.60;99.90
19003;DHT22;9634;51.040;13.794;2022-11-15T22:07:51;5.60;99.90
19003;DHT22;9634;51.040;13.794;2022-11-15T22:12:54;5.60;99.90
19003;DHT22;9634;51.040;13.794;2022-11-15T22:17:59;5.60;99.90
19003;DHT22;9634;51.040;13.794;2022-11-15T22:23:04;5.60;99.90
19003;DHT22;9634;51.040;13.794;2022-11-15T22:28:08;5.60;99.90
19003;DHT22;9634;51.040;13.794;2022-11-15T22:33:11;5.70;99.90
19003;DHT22;9634;51.040;13.794;2022-11-15T22:38:15;5.70;99.90
19003;DHT22;9634;51.040;13.794;2022-11-15T22:43:19;5.70;99.90
19003;DHT22;9634;51.040;13.794;2022-11-15T22:48:23;5.80;99.90
19003;DHT22;9634;51.040;13.794;2022-11-15T22:53:28;5.80;99.90
19003;DHT22;9634;51.040;13.794;2022-11-15T22:58:32;5.80;99.90
19003;DHT22;9634;51.040;13.794;2022-11-15T23:03:35;5.80;99.90
19003;DHT22;9634;51.040;13.794;2022-11-15T23:08:39;5.80;99.90
19003;DHT22;9634;51.040;13.794;2022-11-15T23:13:42;5.80;99.90
19003;DHT22;9634;51.040;13.794;2022-11-15T23:18:48;5.70;99.90
19003;DHT22;9634;51.040;13.794;2022-11-15T23:23:53;5.80;99.90
19003;DHT22;9634;51.040;13.794;2022-11-15T23:28:56;5.80;99.90
19003;DHT22;9634;51.040;13.794;2022-11-15T23:33:58;5.80;99.90
19003;DHT22;9634;51.040;13.794;2022-11-15T23:39:05;5.80;99.90
19003;DHT22;9634;51.040;13.794;2022-11-15T23:44:08;5.80;99.90
19003;DHT22;9634;51.040;13.794;2022-11-15T23:49:10;5.90;99.90
19003;DHT22;9634;51.040;13.794;2022-11-15T23:54:15;5.80;99.90
19003;DHT22;9634;51.040;13.794;2022-11-15T23:59:17;5.90;99.90
